createdAt,value
2017-03-04T00:00:21.024Z,0
2017-03-04T00:01:03.660Z,0
2017-03-04T00:01:46.708Z,0
2017-03-04T00:05:42.167Z,0
2017-03-04T00:08:03.800Z,0
2017-03-04T00:08:46.173Z,0
2017-03-04T00:09:28.759Z,0
2017-03-04T00:12:06.543Z,0
2017-03-04T00:12:48.666Z,0
2017-03-04T00:13:31.160Z,0
2017-03-04T00:14:13.888Z,0
2017-03-04T00:14:56.591Z,0
2017-03-04T00:15:39.499Z,0
2017-03-04T00:16:21.977Z,0
2017-03-04T00:17:04.823Z,0
2017-03-04T00:17:45.384Z,0
2017-03-04T00:18:26.531Z,0
2017-03-04T00:19:09.101Z,0
2017-03-04T00:19:52.027Z,0
2017-03-04T00:20:35.137Z,0
2017-03-04T00:21:17.846Z,0
2017-03-04T00:21:59.923Z,0
2017-03-04T00:22:41.986Z,0
2017-03-04T00:24:58.483Z,0
2017-03-04T00:25:41.358Z,0
2017-03-04T00:26:23.863Z,0
2017-03-04T00:27:06.488Z,0
2017-03-04T00:29:44.262Z,0
2017-03-04T00:30:26.702Z,0
2017-03-04T00:31:09.255Z,0
2017-03-04T00:31:51.814Z,0
2017-03-04T00:32:34.582Z,0
2017-03-04T00:33:17.291Z,0
2017-03-04T00:33:59.962Z,0
2017-03-04T00:34:42.599Z,0
2017-03-04T00:35:24.672Z,0
2017-03-04T00:37:57.015Z,0
2017-03-04T00:40:29.214Z,0
2017-03-04T00:41:11.938Z,0
2017-03-04T00:41:54.296Z,0
2017-03-04T00:42:36.783Z,0
2017-03-04T00:43:19.480Z,0
2017-03-04T00:44:02.117Z,0
2017-03-04T00:44:44.688Z,0
2017-03-04T00:45:27.276Z,0
2017-03-04T00:46:10.120Z,0
2017-03-04T00:46:52.776Z,0
2017-03-04T00:49:09.413Z,0
2017-03-04T00:49:52.103Z,0
2017-03-04T00:50:34.619Z,0
2017-03-04T00:51:17.331Z,0
2017-03-04T00:53:18.321Z,0
2017-03-04T00:54:00.932Z,0
2017-03-04T00:54:43.022Z,0
2017-03-04T00:55:25.539Z,0
2017-03-04T00:56:08.332Z,0
2017-03-04T00:56:51.019Z,0
2017-03-04T00:57:33.418Z,0
2017-03-04T00:59:49.508Z,0
2017-03-04T01:00:31.864Z,0
2017-03-04T01:03:09.415Z,0
2017-03-04T01:03:51.652Z,0
2017-03-04T01:04:34.351Z,0
2017-03-04T01:06:34.753Z,0
2017-03-04T01:07:17.575Z,0
2017-03-04T01:07:59.982Z,0
2017-03-04T01:08:42.630Z,0
2017-03-04T01:09:25.070Z,0
2017-03-04T01:10:07.413Z,0
2017-03-04T01:10:49.915Z,0
2017-03-04T01:13:11.768Z,0
2017-03-04T01:13:54.150Z,0
2017-03-04T01:14:36.684Z,0
2017-03-04T01:16:52.821Z,0
2017-03-04T01:17:35.169Z,0
2017-03-04T01:18:17.466Z,0
2017-03-04T01:19:00.112Z,0
2017-03-04T01:19:42.330Z,0
2017-03-04T01:24:10.019Z,0
2017-03-04T01:24:52.365Z,0
2017-03-04T01:25:34.809Z,0
2017-03-04T01:28:12.425Z,0
2017-03-04T01:30:49.886Z,0
2017-03-04T01:31:32.460Z,0
2017-03-04T01:35:49.450Z,0
2017-03-04T01:36:32.106Z,0
2017-03-04T01:37:14.336Z,0
2017-03-04T01:39:30.829Z,0
2017-03-04T01:40:13.545Z,0
2017-03-04T01:42:51.876Z,0
2017-03-04T01:45:24.567Z,0
2017-03-04T01:46:06.888Z,0
2017-03-04T01:46:49.766Z,0
2017-03-04T01:47:32.202Z,0
2017-03-04T01:48:14.707Z,0
2017-03-04T01:50:15.552Z,0
2017-03-04T01:52:37.671Z,0
2017-03-04T01:55:10.302Z,0
2017-03-04T01:55:53.140Z,0
2017-03-04T01:56:35.746Z,0
2017-03-04T01:57:18.579Z,0
2017-03-04T01:58:01.171Z,0
2017-03-04T01:58:43.985Z,0
2017-03-04T01:59:26.797Z,0
2017-03-04T02:00:09.150Z,0
2017-03-04T02:02:39.950Z,0
2017-03-04T02:03:20.498Z,0
2017-03-04T02:04:01.031Z,0
2017-03-04T02:04:41.586Z,0
2017-03-04T02:05:22.165Z,0
2017-03-04T02:06:02.710Z,0
2017-03-04T02:06:43.258Z,0
2017-03-04T02:07:23.812Z,0
2017-03-04T02:08:04.354Z,0
2017-03-04T02:08:44.899Z,0
2017-03-04T02:09:25.437Z,0
2017-03-04T02:10:05.984Z,0
2017-03-04T02:10:46.530Z,0
2017-03-04T02:11:27.068Z,0
2017-03-04T02:12:07.599Z,0
2017-03-04T02:12:48.129Z,0
2017-03-04T02:13:28.673Z,0
2017-03-04T02:14:09.220Z,0
2017-03-04T02:14:49.764Z,0
2017-03-04T02:15:30.310Z,0
2017-03-04T02:16:10.856Z,0
2017-03-04T02:16:51.394Z,0
2017-03-04T02:17:31.942Z,0
2017-03-04T02:18:12.482Z,0
2017-03-04T02:18:53.036Z,0
2017-03-04T02:19:33.566Z,0
2017-03-04T02:20:14.105Z,0
2017-03-04T02:20:54.659Z,0
2017-03-04T02:21:35.201Z,0
2017-03-04T02:22:15.770Z,0
2017-03-04T02:22:56.314Z,0
2017-03-04T02:23:36.843Z,0
2017-03-04T02:24:17.385Z,0
2017-03-04T02:24:57.931Z,0
2017-03-04T02:25:38.479Z,0
2017-03-04T02:26:19.036Z,0
2017-03-04T02:26:59.581Z,0
2017-03-04T02:27:40.124Z,0
2017-03-04T02:28:20.669Z,0
2017-03-04T02:29:01.208Z,0
2017-03-04T02:29:41.764Z,0
2017-03-04T02:30:22.308Z,0
2017-03-04T02:31:02.854Z,0
2017-03-04T02:31:43.399Z,0
2017-03-04T02:32:23.930Z,0
2017-03-04T02:33:04.471Z,0
2017-03-04T02:33:45.001Z,0
2017-03-04T02:34:25.547Z,0
2017-03-04T02:35:06.096Z,0
2017-03-04T02:35:46.664Z,0
2017-03-04T02:36:27.184Z,0
2017-03-04T02:37:07.733Z,0
2017-03-04T02:37:48.294Z,0
2017-03-04T02:38:28.855Z,0
2017-03-04T02:39:09.433Z,0
2017-03-04T02:39:49.982Z,0
2017-03-04T02:40:30.528Z,0
2017-03-04T02:41:11.060Z,0
2017-03-04T02:41:51.603Z,0
2017-03-04T02:42:32.153Z,0
2017-03-04T02:43:12.708Z,0
2017-03-04T02:43:53.254Z,0
2017-03-04T02:44:33.805Z,0
2017-03-04T02:45:14.354Z,0
2017-03-04T02:45:54.905Z,0
2017-03-04T02:46:35.457Z,0
2017-03-04T02:47:16.011Z,0
2017-03-04T02:47:56.558Z,0
2017-03-04T02:48:37.107Z,0
2017-03-04T02:49:17.657Z,0
2017-03-04T02:49:58.207Z,0
2017-03-04T02:50:38.758Z,0
2017-03-04T02:51:19.311Z,0
2017-03-04T02:51:59.860Z,0
2017-03-04T02:52:40.410Z,0
2017-03-04T02:53:20.956Z,0
2017-03-04T02:54:01.501Z,0
2017-03-04T02:54:42.039Z,0
2017-03-04T02:55:22.587Z,0
2017-03-04T02:56:03.138Z,0
2017-03-04T02:56:43.682Z,0
2017-03-04T02:57:24.213Z,0
2017-03-04T02:58:04.755Z,0
2017-03-04T02:58:45.302Z,0
2017-03-04T02:59:25.853Z,0
2017-03-04T03:00:06.386Z,0
2017-03-04T03:00:46.926Z,0
2017-03-04T03:01:27.473Z,0
2017-03-04T03:02:08.025Z,0
2017-03-04T03:02:48.575Z,0
2017-03-04T03:03:29.126Z,0
2017-03-04T03:04:09.675Z,0
2017-03-04T03:04:50.225Z,0
2017-03-04T03:05:30.768Z,0
2017-03-04T03:06:11.301Z,0
2017-03-04T03:06:51.922Z,0
2017-03-04T03:07:32.463Z,0
2017-03-04T03:08:13.008Z,0
2017-03-04T03:08:53.544Z,0
2017-03-04T03:09:34.090Z,0
2017-03-04T03:10:14.635Z,0
2017-03-04T03:10:55.184Z,0
2017-03-04T03:11:35.727Z,0
2017-03-04T03:12:16.277Z,0
2017-03-04T03:12:56.828Z,0
2017-03-04T03:13:37.372Z,0
2017-03-04T03:14:17.907Z,0
2017-03-04T03:14:58.450Z,0
2017-03-04T03:15:38.981Z,0
2017-03-04T03:16:19.524Z,0
2017-03-04T03:17:00.061Z,0
2017-03-04T03:17:40.623Z,0
2017-03-04T03:18:21.156Z,0
2017-03-04T03:19:01.696Z,0
2017-03-04T03:19:42.243Z,0
2017-03-04T03:20:22.793Z,0
2017-03-04T03:21:03.336Z,0
2017-03-04T03:21:43.879Z,0
2017-03-04T03:22:24.419Z,0
2017-03-04T03:23:04.957Z,0
2017-03-04T03:23:45.517Z,0
2017-03-04T03:24:26.069Z,0
2017-03-04T03:25:06.603Z,0
2017-03-04T03:25:47.146Z,0
2017-03-04T03:26:27.687Z,0
2017-03-04T03:27:08.214Z,0
2017-03-04T03:27:48.756Z,0
2017-03-04T03:28:29.308Z,0
2017-03-04T03:29:09.855Z,0
2017-03-04T03:29:50.425Z,0
2017-03-04T03:30:30.955Z,0
2017-03-04T03:31:11.492Z,0
2017-03-04T03:31:52.040Z,0
2017-03-04T03:32:32.581Z,0
2017-03-04T03:33:13.132Z,0
2017-03-04T03:33:53.680Z,0
2017-03-04T03:34:34.230Z,0
2017-03-04T03:35:14.771Z,0
2017-03-04T03:35:55.312Z,0
2017-03-04T03:36:35.855Z,0
2017-03-04T03:37:16.400Z,0
2017-03-04T03:37:56.966Z,0
2017-03-04T03:38:37.479Z,0
2017-03-04T03:39:18.026Z,0
2017-03-04T03:39:58.570Z,0
2017-03-04T03:40:39.120Z,0
2017-03-04T03:41:19.668Z,0
2017-03-04T03:42:00.215Z,0
2017-03-04T03:42:40.765Z,0
2017-03-04T03:43:21.311Z,0
2017-03-04T03:44:01.850Z,0
2017-03-04T03:44:42.394Z,0
2017-03-04T03:45:22.943Z,0
2017-03-04T03:46:03.486Z,0
2017-03-04T03:46:44.032Z,0
2017-03-04T03:47:24.568Z,0
2017-03-04T03:48:05.112Z,0
2017-03-04T03:48:45.653Z,0
2017-03-04T03:49:26.188Z,0
2017-03-04T03:50:06.729Z,0
2017-03-04T03:50:47.302Z,0
2017-03-04T03:51:27.835Z,0
2017-03-04T03:52:08.380Z,0
2017-03-04T03:52:48.931Z,0
2017-03-04T03:53:29.481Z,0
2017-03-04T03:54:10.031Z,0
2017-03-04T03:54:50.581Z,0
2017-03-04T03:55:31.124Z,0
2017-03-04T03:56:11.665Z,0
2017-03-04T03:56:52.207Z,0
2017-03-04T03:57:32.756Z,0
2017-03-04T03:58:13.298Z,0
2017-03-04T03:58:53.829Z,0
2017-03-04T03:59:34.373Z,0
2017-03-04T04:00:14.919Z,0
2017-03-04T04:00:55.452Z,0
2017-03-04T04:01:35.996Z,0
2017-03-04T04:02:16.541Z,0
2017-03-04T04:02:57.082Z,0
2017-03-04T04:03:37.633Z,0
2017-03-04T04:04:18.184Z,0
2017-03-04T04:04:58.751Z,0
2017-03-04T04:05:39.295Z,0
2017-03-04T04:06:19.837Z,0
2017-03-04T04:07:00.381Z,0
2017-03-04T04:07:40.927Z,0
2017-03-04T04:08:21.470Z,0
2017-03-04T04:09:02.063Z,0
2017-03-04T04:09:42.606Z,0
2017-03-04T04:10:23.171Z,0
2017-03-04T04:11:03.703Z,0
2017-03-04T04:11:44.251Z,0
2017-03-04T04:12:24.801Z,0
2017-03-04T04:13:05.345Z,0
2017-03-04T04:13:45.887Z,0
2017-03-04T04:14:26.428Z,0
2017-03-04T04:15:06.975Z,0
2017-03-04T04:15:47.521Z,0
2017-03-04T04:16:28.068Z,0
2017-03-04T04:17:08.585Z,0
2017-03-04T04:17:49.122Z,0
2017-03-04T04:18:29.662Z,0
2017-03-04T04:19:10.212Z,0
2017-03-04T04:19:50.762Z,0
2017-03-04T04:20:31.313Z,0
2017-03-04T04:21:11.863Z,0
2017-03-04T04:21:52.414Z,0
2017-03-04T04:22:32.967Z,0
2017-03-04T04:23:13.516Z,0
2017-03-04T04:23:54.073Z,0
2017-03-04T04:24:34.621Z,0
2017-03-04T04:25:15.168Z,0
2017-03-04T04:25:55.719Z,0
2017-03-04T04:26:36.271Z,0
2017-03-04T04:27:16.813Z,0
2017-03-04T04:27:57.363Z,0
2017-03-04T04:28:37.905Z,0
2017-03-04T04:29:18.444Z,0
2017-03-04T04:29:58.991Z,0
2017-03-04T04:30:39.517Z,0
2017-03-04T04:31:20.056Z,0
2017-03-04T04:32:00.587Z,0
2017-03-04T04:32:41.128Z,0
2017-03-04T04:33:21.676Z,0
2017-03-04T04:34:02.228Z,0
2017-03-04T04:34:42.780Z,0
2017-03-04T04:35:23.327Z,0
2017-03-04T04:36:03.879Z,0
2017-03-04T04:36:44.425Z,0
2017-03-04T04:37:24.950Z,0
2017-03-04T04:38:05.497Z,0
2017-03-04T04:38:46.028Z,0
2017-03-04T04:39:26.567Z,0
2017-03-04T04:40:07.104Z,0
2017-03-04T04:40:47.643Z,0
2017-03-04T04:41:28.183Z,0
2017-03-04T04:42:08.730Z,0
2017-03-04T04:42:49.276Z,0
2017-03-04T04:43:29.826Z,0
2017-03-04T04:44:10.372Z,0
2017-03-04T04:44:50.908Z,0
2017-03-04T04:45:31.458Z,0
2017-03-04T04:46:12.007Z,0
2017-03-04T04:46:52.549Z,0
2017-03-04T04:47:33.086Z,0
2017-03-04T04:48:13.626Z,0
2017-03-04T04:48:54.172Z,0
2017-03-04T04:49:34.717Z,0
2017-03-04T04:50:15.255Z,0
2017-03-04T04:50:55.800Z,0
2017-03-04T04:51:36.405Z,0
2017-03-04T04:52:16.953Z,0
2017-03-04T04:52:57.488Z,0
2017-03-04T04:53:38.039Z,0
2017-03-04T04:54:18.584Z,0
2017-03-04T04:54:59.121Z,0
2017-03-04T04:55:39.660Z,0
2017-03-04T04:56:20.199Z,0
2017-03-04T04:57:00.749Z,0
2017-03-04T04:57:41.305Z,0
2017-03-04T04:58:21.853Z,0
2017-03-04T04:59:02.401Z,0
2017-03-04T04:59:42.948Z,0
2017-03-04T05:00:23.480Z,0
2017-03-04T05:01:04.026Z,0
2017-03-04T05:01:44.709Z,0
2017-03-04T05:02:25.172Z,0
2017-03-04T05:03:05.715Z,0
2017-03-04T05:03:46.254Z,0
2017-03-04T05:04:26.793Z,0
2017-03-04T05:05:07.330Z,0
2017-03-04T05:05:47.881Z,0
2017-03-04T05:06:28.430Z,0
2017-03-04T05:07:08.957Z,0
2017-03-04T05:07:49.500Z,0
2017-03-04T05:08:30.038Z,0
2017-03-04T05:09:10.583Z,0
2017-03-04T05:09:51.127Z,0
2017-03-04T05:10:31.675Z,0
2017-03-04T05:11:12.218Z,0
2017-03-04T05:11:52.774Z,0
2017-03-04T05:12:33.321Z,0
2017-03-04T05:13:13.869Z,0
2017-03-04T05:13:54.419Z,0
2017-03-04T05:14:34.953Z,0
2017-03-04T05:15:15.493Z,0
2017-03-04T05:15:56.042Z,0
2017-03-04T05:16:36.592Z,0
2017-03-04T05:17:17.136Z,0
2017-03-04T05:17:57.797Z,0
2017-03-04T05:18:38.340Z,0
2017-03-04T05:19:18.872Z,0
2017-03-04T05:19:59.412Z,0
2017-03-04T05:20:39.972Z,0
2017-03-04T05:21:20.594Z,0
2017-03-04T05:22:01.268Z,0
2017-03-04T05:22:41.824Z,0
2017-03-04T05:23:22.366Z,0
2017-03-04T05:24:02.917Z,0
2017-03-04T05:24:43.562Z,0
2017-03-04T05:25:24.104Z,0
2017-03-04T05:26:04.645Z,0
2017-03-04T05:26:45.198Z,0
2017-03-04T05:27:25.737Z,0
2017-03-04T05:28:06.286Z,0
2017-03-04T05:28:46.838Z,0
2017-03-04T05:29:27.389Z,0
2017-03-04T05:30:07.939Z,0
2017-03-04T05:30:48.482Z,0
2017-03-04T05:31:29.033Z,0
2017-03-04T05:32:09.575Z,0
2017-03-04T05:32:50.131Z,0
2017-03-04T05:33:30.671Z,0
2017-03-04T05:34:11.222Z,0
2017-03-04T05:34:51.770Z,0
2017-03-04T05:35:32.311Z,0
2017-03-04T05:36:12.848Z,0
2017-03-04T05:36:53.390Z,0
2017-03-04T05:37:33.933Z,0
2017-03-04T05:38:14.481Z,0
2017-03-04T05:38:55.028Z,0
2017-03-04T05:39:35.579Z,0
2017-03-04T05:40:16.131Z,0
2017-03-04T05:40:56.682Z,0
2017-03-04T05:41:37.235Z,0
2017-03-04T05:42:17.772Z,0
2017-03-04T05:42:58.316Z,0
2017-03-04T05:43:38.863Z,0
2017-03-04T05:44:19.413Z,0
2017-03-04T05:44:59.972Z,0
2017-03-04T05:45:40.521Z,0
2017-03-04T05:46:21.068Z,0
2017-03-04T05:47:01.611Z,0
2017-03-04T05:47:42.156Z,0
2017-03-04T05:48:22.778Z,0
2017-03-04T05:49:03.315Z,0
2017-03-04T05:49:43.914Z,0
2017-03-04T05:50:24.455Z,0
2017-03-04T05:51:04.997Z,0
2017-03-04T05:51:45.546Z,4
2017-03-04T05:52:26.096Z,4
2017-03-04T05:53:06.693Z,4
2017-03-04T05:53:47.228Z,4
2017-03-04T05:54:27.778Z,0
2017-03-04T05:55:08.401Z,4
2017-03-04T05:55:48.946Z,4
2017-03-04T05:56:29.477Z,4
2017-03-04T05:57:10.021Z,8
2017-03-04T05:57:50.564Z,4
2017-03-04T05:58:31.106Z,4
2017-03-04T05:59:11.657Z,8
2017-03-04T05:59:52.303Z,8
2017-03-04T06:00:32.848Z,12
2017-03-04T06:01:13.436Z,8
2017-03-04T06:01:53.977Z,8
2017-03-04T06:02:34.523Z,12
2017-03-04T06:03:15.059Z,12
2017-03-04T06:03:55.645Z,12
2017-03-04T06:04:36.176Z,12
2017-03-04T06:05:16.724Z,16
2017-03-04T06:05:57.258Z,16
2017-03-04T06:06:37.808Z,20
2017-03-04T06:07:18.368Z,20
2017-03-04T06:07:58.998Z,24
2017-03-04T06:08:39.544Z,24
2017-03-04T06:09:20.095Z,24
2017-03-04T06:10:00.645Z,28
2017-03-04T06:10:41.180Z,28
2017-03-04T06:11:21.734Z,32
2017-03-04T06:12:02.279Z,32
2017-03-04T06:12:42.837Z,36
2017-03-04T06:13:23.378Z,36
2017-03-04T06:14:03.927Z,40
2017-03-04T06:14:44.457Z,44
2017-03-04T06:15:24.992Z,44
2017-03-04T06:16:05.541Z,48
2017-03-04T06:16:46.087Z,52
2017-03-04T06:17:26.633Z,56
2017-03-04T06:18:07.175Z,56
2017-03-04T06:18:47.721Z,60
2017-03-04T06:19:28.276Z,68
2017-03-04T06:20:08.825Z,72
2017-03-04T06:20:49.372Z,72
2017-03-04T06:21:29.960Z,80
2017-03-04T06:22:10.493Z,84
2017-03-04T06:22:51.032Z,88
2017-03-04T06:23:31.582Z,96
2017-03-04T06:24:12.133Z,100
2017-03-04T06:24:53.497Z,108
2017-03-04T06:25:34.037Z,112
2017-03-04T06:26:14.583Z,120
2017-03-04T06:26:55.125Z,128
2017-03-04T06:27:35.665Z,132
2017-03-04T06:28:16.235Z,140
2017-03-04T06:28:56.738Z,144
2017-03-04T06:29:37.291Z,152
2017-03-04T06:30:17.825Z,156
2017-03-04T06:30:58.359Z,160
2017-03-04T06:31:38.905Z,164
2017-03-04T06:32:19.451Z,168
2017-03-04T06:33:00.011Z,180
2017-03-04T06:33:40.557Z,188
2017-03-04T06:34:21.108Z,196
2017-03-04T06:35:01.653Z,208
2017-03-04T06:35:42.204Z,220
2017-03-04T06:36:22.760Z,228
2017-03-04T06:37:03.311Z,236
2017-03-04T06:37:43.853Z,244
2017-03-04T06:38:24.414Z,248
2017-03-04T06:39:04.958Z,256
2017-03-04T06:39:45.498Z,264
2017-03-04T06:40:26.041Z,272
2017-03-04T06:41:06.579Z,280
2017-03-04T06:41:47.158Z,284
2017-03-04T06:42:27.706Z,288
2017-03-04T06:43:08.283Z,288
2017-03-04T06:43:48.921Z,292
2017-03-04T06:44:29.502Z,296
2017-03-04T06:45:10.120Z,300
2017-03-04T06:45:50.669Z,300
2017-03-04T06:46:31.222Z,308
2017-03-04T06:47:11.987Z,312
2017-03-04T06:47:52.674Z,316
2017-03-04T06:48:33.211Z,324
2017-03-04T06:49:13.752Z,328
2017-03-04T06:49:54.293Z,332
2017-03-04T06:50:34.841Z,340
2017-03-04T06:51:15.396Z,352
2017-03-04T06:51:55.938Z,356
2017-03-04T06:52:36.489Z,360
2017-03-04T06:53:17.039Z,360
2017-03-04T06:53:57.617Z,364
2017-03-04T06:54:38.160Z,372
2017-03-04T06:55:18.704Z,380
2017-03-04T06:55:59.246Z,396
2017-03-04T06:56:39.792Z,408
2017-03-04T06:57:20.344Z,428
2017-03-04T06:58:00.892Z,452
2017-03-04T06:58:41.439Z,476
2017-03-04T06:59:21.996Z,500
2017-03-04T07:00:02.548Z,524
2017-03-04T07:00:43.124Z,544
2017-03-04T07:01:23.679Z,564
2017-03-04T07:02:04.213Z,584
2017-03-04T07:02:44.753Z,600
2017-03-04T07:03:25.314Z,616
2017-03-04T07:04:05.899Z,628
2017-03-04T07:04:46.455Z,640
2017-03-04T07:05:26.998Z,656
2017-03-04T07:06:07.541Z,668
2017-03-04T07:06:48.087Z,676
2017-03-04T07:07:28.629Z,688
2017-03-04T07:08:09.188Z,700
2017-03-04T07:08:49.714Z,704
2017-03-04T07:09:30.330Z,712
2017-03-04T07:10:10.880Z,716
2017-03-04T07:10:51.428Z,720
2017-03-04T07:11:31.985Z,720
2017-03-04T07:12:12.532Z,716
2017-03-04T07:12:53.072Z,716
2017-03-04T07:13:33.607Z,720
2017-03-04T07:14:14.146Z,732
2017-03-04T07:14:54.765Z,744
2017-03-04T07:15:35.300Z,756
2017-03-04T07:16:15.838Z,780
2017-03-04T07:16:56.363Z,800
2017-03-04T07:17:36.915Z,824
2017-03-04T07:18:17.457Z,848
2017-03-04T07:18:57.998Z,868
2017-03-04T07:19:38.536Z,900
2017-03-04T07:20:19.079Z,928
2017-03-04T07:20:59.653Z,956
2017-03-04T07:21:40.195Z,980
2017-03-04T07:22:20.740Z,1004
2017-03-04T07:23:01.283Z,1028
2017-03-04T07:23:41.826Z,1052
2017-03-04T07:24:22.386Z,1084
2017-03-04T07:25:02.992Z,1112
2017-03-04T07:25:43.585Z,1140
2017-03-04T07:26:24.145Z,1160
2017-03-04T07:27:04.697Z,1172
2017-03-04T07:27:45.242Z,1192
2017-03-04T07:28:25.803Z,1220
2017-03-04T07:29:06.354Z,1244
2017-03-04T07:29:46.893Z,1276
2017-03-04T07:30:27.439Z,1304
2017-03-04T07:31:07.973Z,1336
2017-03-04T07:31:48.510Z,1376
2017-03-04T07:32:29.101Z,1416
2017-03-04T07:33:09.677Z,1464
2017-03-04T07:33:50.239Z,1516
2017-03-04T07:34:30.836Z,1560
2017-03-04T07:35:11.399Z,1616
2017-03-04T07:35:51.995Z,1680
2017-03-04T07:36:32.544Z,1728
2017-03-04T07:37:13.106Z,1776
2017-03-04T07:37:53.645Z,1820
2017-03-04T07:38:34.183Z,1856
2017-03-04T07:39:14.800Z,1904
2017-03-04T07:39:55.357Z,1968
2017-03-04T07:40:35.910Z,2028
2017-03-04T07:41:16.454Z,2076
2017-03-04T07:41:57.008Z,2120
2017-03-04T07:42:37.549Z,2164
2017-03-04T07:43:18.092Z,2208
2017-03-04T07:43:58.653Z,2248
2017-03-04T07:44:39.209Z,2284
2017-03-04T07:45:19.772Z,2324
2017-03-04T07:46:00.327Z,2380
2017-03-04T07:46:40.948Z,2456
2017-03-04T07:47:21.522Z,2520
2017-03-04T07:48:02.085Z,2576
2017-03-04T07:48:42.629Z,2616
2017-03-04T07:49:23.181Z,2664
2017-03-04T07:50:03.733Z,2712
2017-03-04T07:50:44.272Z,2760
2017-03-04T07:51:24.852Z,2808
2017-03-04T07:52:05.423Z,2856
2017-03-04T07:52:45.995Z,2912
2017-03-04T07:53:26.559Z,2976
2017-03-04T07:54:07.116Z,3036
2017-03-04T07:54:47.680Z,3096
2017-03-04T07:55:28.230Z,3140
2017-03-04T07:56:08.792Z,3184
2017-03-04T07:56:49.344Z,3228
2017-03-04T07:57:29.884Z,3288
2017-03-04T07:58:10.502Z,3368
2017-03-04T07:58:51.032Z,3476
2017-03-04T07:59:31.560Z,3600
2017-03-04T08:00:12.148Z,3720
2017-03-04T08:00:52.706Z,3852
2017-03-04T08:01:33.259Z,3976
2017-03-04T08:02:13.823Z,4100
2017-03-04T08:02:54.386Z,4212
2017-03-04T08:03:34.935Z,4308
2017-03-04T08:04:15.505Z,4384
2017-03-04T08:04:56.065Z,4456
2017-03-04T08:05:36.639Z,4512
2017-03-04T08:06:17.206Z,4580
2017-03-04T08:06:57.804Z,4652
2017-03-04T08:07:38.363Z,4720
2017-03-04T08:08:18.910Z,4776
2017-03-04T08:08:59.460Z,4840
2017-03-04T08:09:40.020Z,4864
2017-03-04T08:10:20.584Z,4900
2017-03-04T08:11:01.127Z,4936
2017-03-04T08:11:41.770Z,4996
2017-03-04T08:12:22.329Z,5016
2017-03-04T08:13:02.870Z,5164
2017-03-04T08:13:43.465Z,5268
2017-03-04T08:14:24.010Z,5348
2017-03-04T08:15:04.557Z,5444
2017-03-04T08:15:45.163Z,5500
2017-03-04T08:16:25.727Z,5548
2017-03-04T08:17:06.271Z,5392
2017-03-04T08:17:46.821Z,5660
2017-03-04T08:18:27.368Z,5704
2017-03-04T08:19:07.926Z,5704
2017-03-04T08:19:48.474Z,5748
2017-03-04T08:20:29.051Z,5756
2017-03-04T08:21:09.622Z,5764
2017-03-04T08:21:50.218Z,5832
2017-03-04T08:22:30.787Z,5888
2017-03-04T08:23:11.351Z,5940
2017-03-04T08:23:51.933Z,5912
2017-03-04T08:24:32.519Z,6520
2017-03-04T08:25:13.085Z,7096
2017-03-04T08:25:53.645Z,8060
2017-03-04T08:26:34.179Z,7892
2017-03-04T08:27:14.735Z,6960
2017-03-04T08:27:55.281Z,6192
2017-03-04T08:28:35.828Z,6084
2017-03-04T08:29:16.372Z,6012
2017-03-04T08:29:56.974Z,5992
2017-03-04T08:30:37.520Z,5988
2017-03-04T08:31:18.074Z,5848
2017-03-04T08:31:58.616Z,5688
2017-03-04T08:32:39.174Z,5556
2017-03-04T08:33:19.793Z,5416
2017-03-04T08:34:00.351Z,5288
2017-03-04T08:34:40.899Z,5232
2017-03-04T08:35:21.447Z,5208
2017-03-04T08:36:02.004Z,5200
2017-03-04T08:36:42.553Z,5192
2017-03-04T08:37:23.094Z,5196
2017-03-04T08:38:03.634Z,5204
2017-03-04T08:38:44.179Z,5208
2017-03-04T08:39:24.735Z,5240
2017-03-04T08:40:05.284Z,5212
2017-03-04T08:40:45.834Z,5208
2017-03-04T08:41:26.388Z,5248
2017-03-04T08:42:06.937Z,5300
2017-03-04T08:42:47.480Z,5356
2017-03-04T08:43:28.032Z,5376
2017-03-04T08:44:08.580Z,5372
2017-03-04T08:44:49.127Z,5372
2017-03-04T08:45:29.681Z,5352
2017-03-04T08:46:10.310Z,5328
2017-03-04T08:46:50.806Z,5312
2017-03-04T08:47:31.732Z,5324
2017-03-04T08:48:12.236Z,5348
2017-03-04T08:48:52.779Z,5392
2017-03-04T08:49:33.334Z,5432
2017-03-04T08:50:13.881Z,5476
2017-03-04T08:50:54.431Z,5536
2017-03-04T08:51:34.980Z,5604
2017-03-04T08:52:15.533Z,5664
2017-03-04T08:52:56.082Z,5688
2017-03-04T08:53:36.636Z,5716
2017-03-04T08:54:17.189Z,5708
2017-03-04T08:54:57.737Z,5700
2017-03-04T08:55:38.280Z,5736
2017-03-04T08:56:18.824Z,5820
2017-03-04T08:56:59.378Z,5936
2017-03-04T08:57:39.926Z,5972
2017-03-04T08:58:20.473Z,5988
2017-03-04T08:59:01.045Z,5988
2017-03-04T08:59:41.573Z,5992
2017-03-04T09:00:22.119Z,6084
2017-03-04T09:01:02.662Z,6192
2017-03-04T09:01:43.210Z,6252
2017-03-04T09:02:23.787Z,6340
2017-03-04T09:03:04.334Z,6276
2017-03-04T09:03:44.877Z,6328
2017-03-04T09:04:25.449Z,6476
2017-03-04T09:05:06.005Z,6688
2017-03-04T09:05:46.555Z,6960
2017-03-04T09:06:27.133Z,7520
2017-03-04T09:07:07.679Z,9296
2017-03-04T09:07:48.307Z,8980
2017-03-04T09:08:28.858Z,7660
2017-03-04T09:09:09.447Z,6780
2017-03-04T09:09:50.038Z,6524
2017-03-04T09:10:30.642Z,6232
2017-03-04T09:11:11.230Z,6420
2017-03-04T09:11:51.825Z,6952
2017-03-04T09:12:32.373Z,7796
2017-03-04T09:13:12.937Z,8936
2017-03-04T09:13:53.508Z,10584
2017-03-04T09:14:34.051Z,11436
2017-03-04T09:15:14.608Z,10672
2017-03-04T09:15:55.148Z,10376
2017-03-04T09:16:35.701Z,10188
2017-03-04T09:17:16.274Z,12896
2017-03-04T09:17:56.869Z,13924
2017-03-04T09:18:37.417Z,17216
2017-03-04T09:19:17.965Z,14512
2017-03-04T09:19:58.509Z,13132
2017-03-04T09:20:39.056Z,11552
2017-03-04T09:21:19.671Z,10136
2017-03-04T09:22:00.214Z,9644
2017-03-04T09:22:40.831Z,11164
2017-03-04T09:23:21.385Z,10896
2017-03-04T09:24:01.954Z,10672
2017-03-04T09:24:42.525Z,10556
2017-03-04T09:25:23.076Z,10136
2017-03-04T09:26:03.630Z,9784
2017-03-04T09:26:44.286Z,10276
2017-03-04T09:27:24.936Z,9500
2017-03-04T09:28:05.479Z,8440
2017-03-04T09:28:46.010Z,7840
2017-03-04T09:29:26.566Z,7380
2017-03-04T09:30:07.151Z,6908
2017-03-04T09:30:47.691Z,6588
2017-03-04T09:31:28.230Z,6380
2017-03-04T09:32:08.771Z,6304
2017-03-04T09:32:49.308Z,6304
2017-03-04T09:33:29.871Z,6316
2017-03-04T09:34:10.411Z,6344
2017-03-04T09:34:50.985Z,6456
2017-03-04T09:35:31.536Z,6740
2017-03-04T09:36:12.122Z,6444
2017-03-04T09:36:52.673Z,6324
2017-03-04T09:37:33.271Z,6288
2017-03-04T09:38:13.876Z,6312
2017-03-04T09:38:54.461Z,6272
2017-03-04T09:39:35.004Z,6388
2017-03-04T09:40:15.595Z,6656
2017-03-04T09:40:56.207Z,6868
2017-03-04T09:41:36.779Z,6880
2017-03-04T09:42:17.321Z,6648
2017-03-04T09:42:58.575Z,6688
2017-03-04T09:43:39.118Z,7336
2017-03-04T09:44:19.669Z,7852
2017-03-04T09:45:00.275Z,8416
2017-03-04T09:45:40.912Z,8800
2017-03-04T09:46:21.485Z,8784
2017-03-04T09:47:02.066Z,9560
2017-03-04T09:47:42.614Z,11320
2017-03-04T09:48:23.163Z,13244
2017-03-04T09:49:03.752Z,15380
2017-03-04T09:49:44.392Z,17920
2017-03-04T09:50:25.015Z,19776
2017-03-04T09:51:05.632Z,24992
2017-03-04T09:51:46.245Z,29696
2017-03-04T09:52:26.949Z,29920
2017-03-04T09:53:07.768Z,22624
2017-03-04T09:53:48.530Z,20064
2017-03-04T09:54:29.088Z,15852
2017-03-04T09:55:09.643Z,13884
2017-03-04T09:55:50.306Z,15728
2017-03-04T09:56:31.001Z,17664
2017-03-04T09:57:11.712Z,20160
2017-03-04T09:57:52.265Z,17696
2017-03-04T09:58:32.847Z,16320
2017-03-04T09:59:13.388Z,15452
2017-03-04T09:59:53.940Z,14192
2017-03-04T10:00:34.492Z,11568
2017-03-04T10:01:15.162Z,11708
2017-03-04T10:01:55.743Z,12764
2017-03-04T10:02:36.296Z,14296
2017-03-04T10:03:16.845Z,12068
2017-03-04T10:03:57.386Z,11688
2017-03-04T10:04:37.978Z,12476
2017-03-04T10:05:18.550Z,13100
2017-03-04T10:05:59.088Z,12180
2017-03-04T10:06:39.629Z,10884
2017-03-04T10:07:20.184Z,9676
2017-03-04T10:08:00.803Z,9892
2017-03-04T10:08:41.472Z,11672
2017-03-04T10:09:22.039Z,12572
2017-03-04T10:10:02.584Z,11440
2017-03-04T10:10:43.201Z,12148
2017-03-04T10:11:23.752Z,13504
2017-03-04T10:12:04.297Z,21472
2017-03-04T10:12:44.908Z,20064
2017-03-04T10:13:25.527Z,21280
2017-03-04T10:14:06.085Z,15200
2017-03-04T10:14:46.681Z,14712
2017-03-04T10:15:27.226Z,12792
2017-03-04T10:16:07.777Z,18016
2017-03-04T10:16:48.458Z,19328
2017-03-04T10:17:29.004Z,16832
2017-03-04T10:18:09.611Z,13152
2017-03-04T10:18:50.137Z,9940
2017-03-04T10:19:30.689Z,8408
2017-03-04T10:20:11.244Z,8024
2017-03-04T10:20:51.793Z,8012
2017-03-04T10:21:32.351Z,8160
2017-03-04T10:22:12.912Z,11412
2017-03-04T10:22:53.538Z,28960
2017-03-04T10:23:34.086Z,41152
2017-03-04T10:24:14.638Z,46496